Time;durP1;ratioP1;P1;durP2;ratioP2;P2;SDS_P1;SDS_P2;PMS_P1;PMS_P2;Temp;Humidity;BMP_temperature;BMP_pressure;BME280_temperature;BME280_humidity;BME280_pressure;Samples;Min_cycle;Max_cycle;Signal;HPM_P1;HPM_P2
2021/10/18 00:02:13;;;;;;;15.57;9.02;;;;;;;9.28;nan;102221.47;5096937;28;20041;-48
2021/10/18 00:04:39;;;;;;;15.95;9.10;;;;;;;9.19;nan;102236.88;5094471;28;20032;-50
2021/10/18 00:07:05;;;;;;;18.17;9.80;;;;;;;9.17;nan;102227.44;5093469;28;20019;-48
2021/10/18 00:09:30;;;;;;;20.98;10.02;;;;;;;9.03;nan;102221.22;5095572;28;20024;-48
2021/10/18 00:11:55;;;;;;;17.05;9.68;;;;;;;9.20;nan;102225.16;5093037;28;20509;-48
2021/10/18 00:14:21;;;;;;;25.08;9.23;;;;;;;9.17;nan;102219.41;5095555;28;20035;-47
2021/10/18 00:16:47;;;;;;;18.95;9.82;;;;;;;9.17;nan;102225.56;5098528;27;20020;-48
2021/10/18 00:19:13;;;;;;;16.98;9.48;;;;;;;9.13;nan;102226.16;5095565;27;20028;-48
2021/10/18 00:21:38;;;;;;;18.38;9.30;;;;;;;9.17;nan;102230.91;5094479;27;20108;-49
2021/10/18 00:24:06;;;;;;;20.00;8.77;;;;;;;9.25;nan;102235.25;5099464;27;20019;-48
2021/10/18 00:26:31;;;;;;;18.50;9.68;;;;;;;9.21;nan;102234.84;5096941;27;20482;-48
2021/10/18 00:28:57;;;;;;;17.73;9.75;;;;;;;9.14;nan;102243.84;5097296;27;20061;-50
2021/10/18 00:31:23;;;;;;;18.73;8.82;;;;;;;9.27;nan;102242.03;5099772;27;20058;-49
2021/10/18 00:33:48;;;;;;;16.75;9.30;;;;;;;9.07;nan;102246.50;5093971;27;20505;-48
2021/10/18 00:36:14;;;;;;;22.65;9.88;;;;;;;9.20;nan;102249.22;5102269;27;20118;-48
2021/10/18 00:38:40;;;;;;;19.38;9.73;;;;;;;9.18;nan;102243.25;5097473;27;20030;-48
2021/10/18 00:41:05;;;;;;;18.35;9.48;;;;;;;9.06;nan;102234.16;5092840;27;20530;-48
2021/10/18 00:43:31;;;;;;;18.90;10.10;;;;;;;9.14;nan;102239.31;5098921;27;20059;-48
2021/10/18 00:45:56;;;;;;;16.23;10.02;;;;;;;9.29;nan;102241.81;5093988;27;21580;-48
2021/10/18 00:48:22;;;;;;;19.35;9.32;;;;;;;9.32;nan;102241.41;5100256;28;20028;-48
2021/10/18 00:50:48;;;;;;;21.92;10.38;;;;;;;9.42;nan;102238.34;5094284;27;20028;-48
2021/10/18 00:53:14;;;;;;;19.67;11.27;;;;;;;9.35;nan;102246.38;5093778;27;20088;-49
2021/10/18 00:55:39;;;;;;;17.38;9.85;;;;;;;9.28;nan;102246.34;5098405;27;20023;-48
2021/10/18 00:58:05;;;;;;;16.40;9.52;;;;;;;9.21;nan;102245.53;5099437;27;20059;-48
2021/10/18 01:00:30;;;;;;;16.92;8.90;;;;;;;9.32;nan;102244.91;5097305;27;20058;-48
2021/10/18 01:02:56;;;;;;;23.33;10.48;;;;;;;9.18;nan;102243.25;5097664;27;20032;-48
2021/10/18 01:05:22;;;;;;;18.58;9.88;;;;;;;9.31;nan;102239.78;5096653;27;20659;-48
2021/10/18 01:07:47;;;;;;;18.67;9.57;;;;;;;9.28;nan;102241.00;5099132;28;20020;-48
2021/10/18 01:10:13;;;;;;;21.13;10.02;;;;;;;9.13;nan;102243.03;5100378;27;20131;-48
2021/10/18 01:12:38;;;;;;;22.33;10.15;;;;;;;9.14;nan;102243.84;5101483;27;20792;-48
2021/10/18 01:15:05;;;;;;;18.73;9.90;;;;;;;9.10;nan;102243.44;5094657;27;20034;-48
2021/10/18 01:17:30;;;;;;;21.85;10.73;;;;;;;8.97;nan;102244.22;5101412;27;20054;-48
2021/10/18 01:19:56;;;;;;;23.35;11.82;;;;;;;9.08;nan;102248.16;5098413;28;20023;-49
2021/10/18 01:22:21;;;;;;;22.10;11.00;;;;;;;9.13;nan;102250.22;5097652;27;20508;-48
2021/10/18 01:24:48;;;;;;;20.10;9.82;;;;;;;9.16;nan;102248.00;5098825;27;20106;-50
2021/10/18 01:27:13;;;;;;;20.65;11.10;;;;;;;9.21;nan;102245.53;5097451;28;20062;-48
2021/10/18 01:29:39;;;;;;;19.42;9.65;;;;;;;9.22;nan;102236.47;5098720;28;20680;-48
2021/10/18 01:32:06;;;;;;;19.25;10.05;;;;;;;9.28;nan;102241.00;5097086;28;20088;-48
2021/10/18 01:34:32;;;;;;;20.42;10.35;;;;;;;9.13;nan;102239.53;5104850;28;20023;-48
2021/10/18 01:37:00;;;;;;;24.67;11.25;;;;;;;9.16;nan;102239.97;5101922;28;20024;-48
2021/10/18 01:39:27;;;;;;;17.02;10.80;;;;;;;9.19;nan;102242.25;5094656;27;20282;-48
2021/10/18 01:41:52;;;;;;;17.33;11.02;;;;;;;9.22;nan;102239.16;5097466;27;20422;-48
2021/10/18 01:44:19;;;;;;;21.30;10.30;;;;;;;9.19;nan;102239.56;5095905;28;20056;-48
2021/10/18 01:46:45;;;;;;;14.18;9.65;;;;;;;9.23;nan;102242.66;5098649;27;20024;-48
2021/10/18 01:49:11;;;;;;;20.38;10.30;;;;;;;9.25;nan;102240.59;5097199;27;20436;-48
2021/10/18 01:51:37;;;;;;;22.45;10.18;;;;;;;9.28;nan;102246.34;5091916;28;20022;-49
2021/10/18 01:54:02;;;;;;;21.48;10.70;;;;;;;9.29;nan;102241.81;5099728;27;20038;-48
2021/10/18 01:56:31;;;;;;;21.08;11.07;;;;;;;9.27;nan;102241.22;5096612;27;20127;-48
2021/10/18 01:58:57;;;;;;;16.80;8.98;;;;;;;9.30;nan;102233.59;5100333;27;20059;-48
2021/10/18 02:01:22;;;;;;;22.45;10.82;;;;;;;9.38;nan;102224.56;5099024;27;20090;-48
2021/10/18 02:03:48;;;;;;;20.13;10.63;;;;;;;9.29;nan;102226.59;5098349;27;20043;-48
2021/10/18 02:06:13;;;;;;;21.20;11.80;;;;;;;9.35;nan;102233.00;5095887;27;20764;-47
2021/10/18 02:08:39;;;;;;;22.13;11.57;;;;;;;9.34;nan;102234.88;5096651;27;20492;-49
2021/10/18 02:11:05;;;;;;;21.88;11.05;;;;;;;9.32;nan;102236.06;5097805;27;20032;-47
2021/10/18 02:13:31;;;;;;;19.85;10.98;;;;;;;9.33;nan;102232.38;5093196;27;20027;-48
2021/10/18 02:15:57;;;;;;;23.00;10.90;;;;;;;9.35;nan;102235.69;5095913;27;20788;-48
2021/10/18 02:18:22;;;;;;;23.60;10.60;;;;;;;9.36;nan;102232.81;5098100;28;20023;-48
2021/10/18 02:20:48;;;;;;;23.05;11.15;;;;;;;9.35;nan;102224.97;5098658;28;20027;-47
2021/10/18 02:23:14;;;;;;;21.40;11.45;;;;;;;9.36;nan;102227.47;5097376;27;20446;-49
2021/10/18 02:25:39;;;;;;;21.63;11.00;;;;;;;9.32;nan;102226.19;5092160;27;20112;-48
2021/10/18 02:28:05;;;;;;;23.80;11.50;;;;;;;9.34;nan;102234.03;5102957;27;20530;-48
2021/10/18 02:30:30;;;;;;;21.98;12.40;;;;;;;9.18;nan;102235.25;5091943;28;20462;-48
2021/10/18 02:32:56;;;;;;;21.65;11.07;;;;;;;9.27;nan;102234.00;5092212;28;20059;-48
2021/10/18 02:35:21;;;;;;;20.00;11.75;;;;;;;9.25;nan;102236.06;5099384;27;20031;-50
2021/10/18 02:37:47;;;;;;;21.27;11.35;;;;;;;9.27;nan;102235.84;5097614;27;20085;-48
2021/10/18 02:40:13;;;;;;;21.33;11.00;;;;;;;9.08;nan;102234.78;5094295;28;20028;-48
2021/10/18 02:42:39;;;;;;;22.60;12.48;;;;;;;9.13;nan;102232.31;5096275;28;20383;-51
2021/10/18 02:45:07;;;;;;;24.48;12.18;;;;;;;9.26;nan;102242.25;5098972;27;20027;-48
2021/10/18 02:47:34;;;;;;;25.83;12.52;;;;;;;9.12;nan;102248.56;5099774;28;20027;-49
2021/10/18 02:49:59;;;;;;;20.13;11.35;;;;;;;9.18;nan;102247.78;5095878;28;20027;-48
2021/10/18 02:52:25;;;;;;;23.88;11.90;;;;;;;9.12;nan;102244.06;5097879;28;20447;-48
2021/10/18 02:54:50;;;;;;;20.30;12.07;;;;;;;9.15;nan;102251.66;5095575;27;20244;-48
2021/10/18 02:57:16;;;;;;;21.20;12.05;;;;;;;9.24;nan;102255.81;5099286;27;20019;-48
2021/10/18 02:59:41;;;;;;;22.02;11.32;;;;;;;9.26;nan;102248.41;5098385;27;20023;-48
2021/10/18 03:02:08;;;;;;;23.95;11.77;;;;;;;9.04;nan;102253.09;5095168;28;20028;-48
2021/10/18 03:04:33;;;;;;;19.45;11.63;;;;;;;9.09;nan;102263.19;5099698;28;20111;-48
2021/10/18 03:06:58;;;;;;;23.23;12.55;;;;;;;9.18;nan;102251.28;5092869;28;20166;-48
2021/10/18 03:09:24;;;;;;;20.55;11.25;;;;;;;9.27;nan;102250.06;5096155;28;20513;-48
2021/10/18 03:11:49;;;;;;;21.50;11.65;;;;;;;9.24;nan;102261.16;5097302;28;20172;-48
2021/10/18 03:14:15;;;;;;;22.55;12.57;;;;;;;9.05;nan;102261.94;5095805;28;20030;-48
2021/10/18 03:16:40;;;;;;;23.05;12.70;;;;;;;9.07;nan;102259.88;5096753;28;20032;-48
2021/10/18 03:19:06;;;;;;;25.23;12.18;;;;;;;9.04;nan;102265.63;5093702;28;20454;-48
2021/10/18 03:21:31;;;;;;;23.48;12.13;;;;;;;9.12;nan;102268.13;5098638;28;20020;-48
2021/10/18 03:23:57;;;;;;;18.27;11.90;;;;;;;9.01;nan;102276.72;5095364;28;20036;-50
2021/10/18 03:26:22;;;;;;;28.80;12.07;;;;;;;9.06;nan;102274.28;5096748;28;20042;-48
2021/10/18 03:28:48;;;;;;;18.70;11.57;;;;;;;9.13;nan;102274.28;5095959;28;20255;-48
2021/10/18 03:31:13;;;;;;;23.10;12.55;;;;;;;9.10;nan;102278.19;5094622;28;20049;-48
2021/10/18 03:33:40;;;;;;;20.70;12.07;;;;;;;9.13;nan;102269.75;5094738;28;20035;-48
2021/10/18 03:36:07;;;;;;;23.48;13.30;;;;;;;9.07;nan;102276.75;5096785;28;20266;-48
2021/10/18 03:38:33;;;;;;;27.25;13.27;;;;;;;9.23;nan;102272.88;5091294;28;20023;-48
2021/10/18 03:40:58;;;;;;;25.05;12.40;;;;;;;9.19;nan;102277.00;5093455;28;20075;-48
2021/10/18 03:43:24;;;;;;;25.10;13.73;;;;;;;9.14;nan;102271.41;5093032;28;20023;-48
2021/10/18 03:45:49;;;;;;;25.55;13.68;;;;;;;9.00;nan;102272.41;5093668;28;20024;-47
2021/10/18 03:48:15;;;;;;;24.02;13.52;;;;;;;9.06;nan;102280.44;5093339;28;20035;-49
2021/10/18 03:50:42;;;;;;;27.42;13.10;;;;;;;9.07;nan;102278.59;5094101;28;20031;-48
2021/10/18 03:53:09;;;;;;;23.85;13.40;;;;;;;9.14;nan;102281.28;5095349;27;20503;-48
2021/10/18 03:55:34;;;;;;;25.75;13.73;;;;;;;8.96;nan;102287.19;5097531;27;20298;-48
2021/10/18 03:58:00;;;;;;;32.90;14.43;;;;;;;8.98;nan;102290.50;5099500;27;20028;-48
2021/10/18 04:00:25;;;;;;;24.30;14.65;;;;;;;9.03;nan;102285.38;5099368;27;20031;-48
2021/10/18 04:02:51;;;;;;;31.58;16.23;;;;;;;8.92;nan;102293.97;5099085;27;20019;-48
2021/10/18 04:05:16;;;;;;;28.88;16.10;;;;;;;8.84;nan;102296.81;5118803;22;20036;-83
2021/10/18 04:07:46;;;;;;;35.00;18.83;;;;;;;8.66;nan;102300.00;5084726;28;20086;-85
2021/10/18 04:10:12;;;;;;;32.40;16.25;;;;;;;8.74;nan;102298.00;5084412;28;20055;-85
2021/10/18 04:12:38;;;;;;;37.03;17.55;;;;;;;8.80;nan;102299.06;5072281;28;20047;-85
2021/10/18 04:15:04;;;;;;;37.92;18.17;;;;;;;8.78;nan;102299.22;5096728;28;20028;-84
2021/10/18 04:17:30;;;;;;;37.63;20.15;;;;;;;8.62;nan;102298.75;5081643;28;20111;-83
2021/10/18 04:19:56;;;;;;;38.70;18.00;;;;;;;8.68;nan;102301.47;5083490;28;20043;-84
2021/10/18 04:22:21;;;;;;;42.40;18.20;;;;;;;8.77;nan;102302.94;5078570;28;20035;-83
2021/10/18 04:24:47;;;;;;;35.78;18.20;;;;;;;8.86;nan;102300.09;5082233;28;20069;-83
2021/10/18 04:27:13;;;;;;;47.60;21.00;;;;;;;8.73;nan;102307.03;5079567;28;20020;-84
2021/10/18 04:29:39;;;;;;;40.70;19.30;;;;;;;8.80;nan;102312.44;5063410;28;20040;-85
2021/10/18 04:32:04;;;;;;;42.95;21.83;;;;;;;8.73;nan;102317.72;5077080;28;20062;-84
2021/10/18 04:34:30;;;;;;;38.20;19.20;;;;;;;8.90;nan;102312.03;5075156;28;20073;-85
2021/10/18 04:36:56;;;;;;;42.22;19.77;;;;;;;8.98;nan;102314.56;5075968;28;20024;-85
2021/10/18 04:39:22;;;;;;;39.00;19.00;;;;;;;9.03;nan;102312.13;5098198;28;20028;-83
2021/10/18 04:41:47;;;;;;;39.60;18.17;;;;;;;9.09;nan;102305.94;5083987;28;20029;-85
2021/10/18 04:44:13;;;;;;;38.80;18.33;;;;;;;8.99;nan;102301.00;5079467;28;20020;-84
2021/10/18 04:46:38;;;;;;;39.78;18.08;;;;;;;9.06;nan;102306.38;5074412;28;20035;-81
2021/10/18 04:49:04;;;;;;;36.97;19.48;;;;;;;9.08;nan;102304.31;5080440;28;20028;-82
2021/10/18 04:51:29;;;;;;;33.65;18.77;;;;;;;9.14;nan;102311.53;5096693;28;20104;-82
2021/10/18 04:53:55;;;;;;;36.55;19.02;;;;;;;9.11;nan;102305.75;5079649;28;20119;-81
2021/10/18 04:56:20;;;;;;;33.83;18.52;;;;;;;9.17;nan;102308.47;5090105;28;20040;-82
2021/10/18 04:58:46;;;;;;;34.30;20.45;;;;;;;9.18;nan;102309.28;5072491;28;20036;-82
2021/10/18 05:01:11;;;;;;;39.97;19.00;;;;;;;9.22;nan;102306.00;5078049;28;20016;-82
2021/10/18 05:03:37;;;;;;;34.08;18.65;;;;;;;9.22;nan;102311.34;5076525;28;20012;-82
2021/10/18 05:06:03;;;;;;;34.42;18.65;;;;;;;9.27;nan;102313.44;5098356;27;20023;-81
2021/10/18 05:08:28;;;;;;;34.90;18.23;;;;;;;9.29;nan;102317.53;5101909;27;20055;-82
2021/10/18 05:10:54;;;;;;;37.67;18.30;;;;;;;9.20;nan;102317.94;5096101;28;20019;-82
2021/10/18 05:13:20;;;;;;;45.08;20.83;;;;;;;9.22;nan;102322.06;5093533;28;20095;-82
2021/10/18 05:15:48;;;;;;;36.92;19.52;;;;;;;9.17;nan;102324.50;5100307;27;20125;-82
2021/10/18 05:18:14;;;;;;;37.80;21.05;;;;;;;9.23;nan;102325.56;5101429;27;20024;-82
2021/10/18 05:20:40;;;;;;;38.67;19.45;;;;;;;9.25;nan;102324.31;5106409;27;20027;-81
2021/10/18 05:23:19;;;;;;;40.72;19.73;;;;;;;9.24;nan;102325.34;5094506;27;20029;-82
2021/10/18 05:25:45;;;;;;;34.35;19.77;;;;;;;9.28;nan;102331.94;5087362;28;20070;-82
2021/10/18 05:28:10;;;;;;;35.40;18.70;;;;;;;9.29;nan;102327.41;5111314;27;20047;-82
2021/10/18 05:30:37;;;;;;;33.00;19.00;;;;;;;9.25;nan;102326.19;5086766;28;20042;-82
2021/10/18 05:33:03;;;;;;;44.58;19.95;;;;;;;9.05;nan;102329.59;5113416;27;20036;-82
2021/10/18 05:35:29;;;;;;;42.25;19.88;;;;;;;8.85;nan;102333.22;5111745;27;20079;-82
2021/10/18 05:37:55;;;;;;;40.17;19.92;;;;;;;8.71;nan;102334.97;5091819;28;20023;-82
2021/10/18 05:40:22;;;;;;;38.00;19.92;;;;;;;8.81;nan;102332.78;5102492;27;20682;-82
2021/10/18 05:42:51;;;;;;;31.90;18.05;;;;;;;8.88;nan;102346.16;5114297;27;20489;-82
2021/10/18 05:45:17;;;;;;;41.22;20.42;;;;;;;8.81;nan;102342.66;5092030;27;20486;-81
2021/10/18 05:48:03;;;;;;;39.60;19.88;;;;;;;8.87;nan;102349.88;5095276;27;20024;-82
2021/10/18 05:50:39;;;;;;;37.25;19.60;;;;;;;8.99;nan;102350.97;5110082;27;20031;-82
2021/10/18 05:53:05;;;;;;;40.08;21.30;;;;;;;9.07;nan;102356.13;5090075;27;20104;-82
2021/10/18 05:55:31;;;;;;;40.63;18.95;;;;;;;8.87;nan;102356.03;5095436;28;20036;-82
2021/10/18 05:57:59;;;;;;;41.03;20.55;;;;;;;8.81;nan;102356.00;5098674;27;20027;-82
2021/10/18 06:04:33;;;;;;;41.80;20.05;;;;;;;8.98;nan;102352.00;5112344;27;20508;-82
2021/10/18 06:17:46;;;;;;;40.20;20.27;;;;;;;9.22;nan;102364.84;4981409;28;20048;-82
2021/10/18 06:20:15;;;;;;;39.22;19.35;;;;;;;9.25;nan;102363.63;5047424;28;20484;-81
2021/10/18 06:22:40;;;;;;;38.55;19.05;;;;;;;9.25;nan;102364.44;5094689;28;20123;-82
2021/10/18 06:25:07;;;;;;;43.45;19.83;;;;;;;9.19;nan;102378.63;5108074;27;20110;-82
2021/10/18 06:27:32;;;;;;;39.30;19.00;;;;;;;9.05;nan;102371.56;5108355;28;20099;-82
2021/10/18 06:29:58;;;;;;;37.13;19.30;;;;;;;9.02;nan;102369.28;5108843;27;20555;-82
2021/10/18 06:32:23;;;;;;;45.80;21.92;;;;;;;8.95;nan;102371.06;5111238;27;20471;-82
2021/10/18 06:34:49;;;;;;;42.47;21.30;;;;;;;8.86;nan;102381.13;5105750;28;20059;-82
2021/10/18 06:37:15;;;;;;;38.95;18.58;;;;;;;9.00;nan;102382.03;5106286;28;20080;-82
2021/10/18 06:39:41;;;;;;;37.75;19.65;;;;;;;9.09;nan;102386.16;5107987;27;20015;-82
2021/10/18 06:42:06;;;;;;;37.40;19.08;;;;;;;9.08;nan;102384.53;5105481;27;20083;-81
2021/10/18 06:44:32;;;;;;;44.28;20.38;;;;;;;9.21;nan;102389.94;5120709;27;20024;-81
2021/10/18 06:46:57;;;;;;;43.88;20.30;;;;;;;9.24;nan;102394.06;5114096;27;20042;-82
2021/10/18 06:49:24;;;;;;;34.58;19.80;;;;;;;9.31;nan;102400.25;5108873;27;20142;-82
2021/10/18 06:51:54;;;;;;;39.15;19.98;;;;;;;9.29;nan;102395.09;5114426;27;20024;-81
2021/10/18 06:54:20;;;;;;;39.17;19.88;;;;;;;9.31;nan;102401.09;5110515;28;20464;-82
2021/10/18 06:56:48;;;;;;;40.65;19.67;;;;;;;9.35;nan;102399.69;5109767;28;20037;-82
2021/10/18 06:59:18;;;;;;;39.63;20.60;;;;;;;9.32;nan;102394.69;5109759;27;20015;-81
2021/10/18 07:01:44;;;;;;;40.50;20.60;;;;;;;9.29;nan;102404.97;5104290;27;20028;-82
2021/10/18 07:04:10;;;;;;;39.85;20.42;;;;;;;9.39;nan;102397.44;5105609;28;20023;-81
2021/10/18 07:06:36;;;;;;;40.42;19.63;;;;;;;9.34;nan;102400.72;5103052;28;20027;-81
2021/10/18 07:09:02;;;;;;;41.63;19.13;;;;;;;9.39;nan;102392.91;5105512;28;20027;-81
2021/10/18 07:11:30;;;;;;;34.45;19.65;;;;;;;9.29;nan;102399.63;5109275;28;20268;-82
2021/10/18 07:13:56;;;;;;;38.95;19.65;;;;;;;9.44;nan;102400.31;5112295;28;20024;-81
2021/10/18 07:16:22;;;;;;;38.00;19.63;;;;;;;9.49;nan;102397.03;5107871;28;20102;-81
2021/10/18 07:18:47;;;;;;;36.80;20.08;;;;;;;9.62;nan;102402.44;5100261;28;20493;-81
2021/10/18 07:21:13;;;;;;;38.40;21.25;;;;;;;9.76;nan;102409.50;5080491;28;20021;-81
2021/10/18 07:23:38;;;;;;;39.72;19.98;;;;;;;9.84;nan;102411.97;5080741;28;20089;-81
2021/10/18 07:26:05;;;;;;;35.78;18.08;;;;;;;9.92;nan;102409.13;5066446;28;20015;-81
2021/10/18 07:28:31;;;;;;;33.55;18.25;;;;;;;9.97;nan;102411.19;5102521;28;20477;-81
2021/10/18 07:30:59;;;;;;;30.48;18.60;;;;;;;9.94;nan;102415.09;5071804;28;20059;-80
2021/10/18 07:33:24;;;;;;;32.25;17.58;;;;;;;10.02;nan;102407.88;5081088;28;20628;-81
2021/10/18 07:35:51;;;;;;;30.30;18.58;;;;;;;10.05;nan;102416.31;5079597;28;20111;-81
2021/10/18 07:38:18;;;;;;;30.50;16.33;;;;;;;10.13;nan;102409.97;5085090;28;20045;-81
2021/10/18 07:40:44;;;;;;;28.65;16.80;;;;;;;9.96;nan;102413.03;5073756;28;20031;-81
2021/10/18 07:43:10;;;;;;;31.70;17.88;;;;;;;9.99;nan;102414.47;5079857;28;20115;-81
2021/10/18 07:45:36;;;;;;;26.48;15.38;;;;;;;10.10;nan;102405.84;5083280;28;20501;-81
2021/10/18 07:48:02;;;;;;;26.83;16.35;;;;;;;10.06;nan;102409.97;5087202;28;20029;-81
2021/10/18 07:50:28;;;;;;;29.88;15.43;;;;;;;10.08;nan;102417.78;5084208;28;20114;-81
2021/10/18 07:52:54;;;;;;;29.65;15.50;;;;;;;9.96;nan;102415.72;5088013;28;20023;-81
2021/10/18 07:55:20;;;;;;;24.60;14.82;;;;;;;10.09;nan;102412.22;5107558;28;20031;-81
2021/10/18 07:57:49;;;;;;;34.70;16.17;;;;;;;10.10;nan;102416.56;5082238;28;20096;-80
2021/10/18 08:00:17;;;;;;;31.92;17.42;;;;;;;10.07;nan;102416.97;5075634;28;20047;-82
2021/10/18 08:02:43;;;;;;;26.90;14.70;;;;;;;10.23;nan;102418.44;5088338;28;20024;-81
2021/10/18 08:05:15;;;;;;;29.30;14.57;;;;;;;10.35;nan;102424.03;5066759;28;20070;-82
2021/10/18 08:07:41;;;;;;;24.88;13.98;;;;;;;10.38;nan;102428.97;5067467;28;20029;-81
2021/10/18 08:10:07;;;;;;;22.27;13.57;;;;;;;10.38;nan;102429.78;5083224;28;20062;-80
2021/10/18 08:12:34;;;;;;;22.67;12.63;;;;;;;10.57;nan;102425.44;5089512;28;20034;-81
2021/10/18 08:15:01;;;;;;;22.63;13.00;;;;;;;10.54;nan;102428.56;5100391;28;20046;-81
2021/10/18 08:17:27;;;;;;;23.27;13.38;;;;;;;10.59;nan;102421.56;5087271;28;20028;-81
2021/10/18 08:19:52;;;;;;;22.67;13.43;;;;;;;10.71;nan;102428.94;5097010;28;20023;-81
2021/10/18 08:22:18;;;;;;;20.98;12.50;;;;;;;10.82;nan;102431.03;5107959;28;20093;-81
2021/10/18 08:24:43;;;;;;;25.38;11.48;;;;;;;10.90;nan;102434.28;5120778;28;20023;-80
2021/10/18 08:27:09;;;;;;;19.55;11.40;;;;;;;10.61;nan;102436.59;5099724;28;20019;-80
2021/10/18 08:29:34;;;;;;;18.92;11.57;;;;;;;10.79;nan;102431.44;5117590;28;20036;-80
2021/10/18 08:32:00;;;;;;;17.60;11.43;;;;;;;10.89;nan;102431.81;5115079;28;20027;-81
2021/10/18 08:34:25;;;;;;;19.48;11.45;;;;;;;10.99;nan;102436.75;5123838;27;20047;-81
2021/10/18 08:36:51;;;;;;;17.65;11.40;;;;;;;10.94;nan;102433.88;5106402;28;20020;-81
2021/10/18 08:42:00;;;;;;;19.23;10.18;;;;;;;10.98;nan;102432.44;5121993;28;20091;-81
2021/10/18 08:44:27;;;;;;;17.75;10.35;;;;;;;11.00;nan;102436.56;5114808;28;20032;-81
2021/10/18 08:46:53;;;;;;;17.25;10.52;;;;;;;10.99;nan;102426.88;5107420;28;20088;-81
2021/10/18 08:49:20;;;;;;;13.75;9.23;;;;;;;11.13;nan;102430.31;5117086;28;20057;-81
2021/10/18 08:51:46;;;;;;;14.68;9.13;;;;;;;11.12;nan;102426.81;5105166;28;20024;-81
2021/10/18 08:54:12;;;;;;;13.90;9.88;;;;;;;11.28;nan;102420.16;5111156;28;20028;-81
2021/10/18 08:56:39;;;;;;;13.13;9.43;;;;;;;11.45;nan;102420.50;5114932;28;20090;-81
2021/10/18 08:59:05;;;;;;;24.02;10.35;;;;;;;11.63;nan;102412.56;5095059;28;20038;-81
2021/10/18 09:01:44;;;;;;;18.05;9.55;;;;;;;11.60;nan;102412.19;5098655;28;20019;-81
2021/10/18 09:04:17;;;;;;;17.38;8.55;;;;;;;11.80;nan;102424.50;5108199;28;20185;-81
2021/10/18 09:06:44;;;;;;;14.50;7.72;;;;;;;11.89;nan;102426.94;5107469;28;20509;-81
2021/10/18 09:09:11;;;;;;;17.23;7.97;;;;;;;11.81;nan;102430.69;5085939;28;20027;-81
2021/10/18 09:11:37;;;;;;;19.58;8.95;;;;;;;11.97;nan;102429.34;5106642;28;20015;-82
2021/10/18 09:14:03;;;;;;;13.90;7.53;;;;;;;12.01;nan;102431.38;5102172;28;20027;-81
2021/10/18 09:16:39;;;;;;;14.75;7.45;;;;;;;12.01;nan;102435.94;5104818;28;20023;-81
2021/10/18 09:19:09;;;;;;;11.35;7.10;;;;;;;12.24;nan;102430.84;5114648;27;20111;-81
2021/10/18 09:21:46;;;;;;;16.15;7.70;;;;;;;12.45;nan;102436.88;5107016;27;20023;-81
2021/10/18 09:24:16;;;;;;;13.75;6.80;;;;;;;12.72;nan;102427.53;5099121;27;20024;-81
2021/10/18 09:26:43;;;;;;;10.02;6.22;;;;;;;12.60;nan;102434.69;5096026;27;20035;-81
2021/10/18 09:29:16;;;;;;;11.57;6.82;;;;;;;12.59;nan;102430.34;5122130;27;20019;-81
2021/10/18 09:31:58;;;;;;;11.35;6.30;;;;;;;12.62;nan;102428.03;5098196;27;20085;-81
2021/10/18 09:34:33;;;;;;;10.93;6.80;;;;;;;12.83;nan;102432.19;5092204;28;20111;-81
2021/10/18 09:37:10;;;;;;;11.27;6.60;;;;;;;12.98;nan;102429.97;5103421;27;20027;-82
2021/10/18 09:39:42;;;;;;;14.35;6.78;;;;;;;13.59;nan;102426.38;5088281;28;20036;-81
2021/10/18 09:42:11;;;;;;;9.88;6.05;;;;;;;13.60;nan;102424.50;5106557;27;20019;-81
2021/10/18 10:51:56;;;;;;;4.45;2.53;;;;;;;16.09;nan;102399.63;5092532;28;20089;-49
2021/10/18 10:54:38;;;;;;;4.05;2.10;;;;;;;16.08;nan;102397.97;5086348;28;20028;-49
2021/10/18 10:57:11;;;;;;;4.13;2.10;;;;;;;15.93;nan;102390.41;5083311;28;20519;-50
2021/10/18 10:59:36;;;;;;;4.30;2.38;;;;;;;16.44;nan;102394.78;5080636;28;20031;-49
2021/10/18 11:02:12;;;;;;;5.15;2.08;;;;;;;16.57;nan;102397.16;5084991;28;20012;-53
2021/10/18 11:04:39;;;;;;;4.75;1.67;;;;;;;16.59;nan;102389.59;5081810;28;20032;-50
2021/10/18 11:07:07;;;;;;;4.68;2.35;;;;;;;16.49;nan;102392.16;5084917;28;20016;-49
2021/10/18 11:09:47;;;;;;;2.88;1.60;;;;;;;16.83;nan;102389.41;5086403;28;20126;-49
2021/10/18 11:12:25;;;;;;;3.65;1.42;;;;;;;16.93;nan;102384.16;5083015;28;20029;-49
2021/10/18 11:15:14;;;;;;;4.78;1.85;;;;;;;16.41;nan;102389.06;5086163;28;20084;-51
2021/10/18 11:17:51;;;;;;;3.97;1.45;;;;;;;16.16;nan;102390.31;5081144;28;20028;-50
2021/10/18 11:20:25;;;;;;;4.00;1.63;;;;;;;16.01;nan;102385.44;5085056;28;20376;-49
2021/10/18 11:22:53;;;;;;;3.70;1.45;;;;;;;16.09;nan;102392.31;5087112;28;20020;-50
2021/10/18 11:25:27;;;;;;;2.33;1.50;;;;;;;16.32;nan;102383.22;5085704;28;20075;-49
2021/10/18 11:27:59;;;;;;;3.90;1.50;;;;;;;16.54;nan;102380.59;5086447;28;20309;-52
2021/10/18 11:30:28;;;;;;;4.25;1.60;;;;;;;16.11;nan;102370.44;5085795;28;20515;-49
2021/10/18 11:32:59;;;;;;;3.53;1.42;;;;;;;16.46;nan;102379.13;5085740;28;20090;-49
2021/10/18 11:35:27;;;;;;;3.85;1.77;;;;;;;16.32;nan;102375.09;5085948;28;20159;-50
2021/10/18 11:37:56;;;;;;;2.35;1.70;;;;;;;16.19;nan;102373.56;5086007;28;20094;-52
2021/10/18 11:40:48;;;;;;;3.75;1.52;;;;;;;16.07;nan;102372.00;5083106;28;20533;-50
2021/10/18 11:43:19;;;;;;;2.65;1.95;;;;;;;16.24;nan;102378.25;5084312;28;20032;-50
2021/10/18 11:45:48;;;;;;;2.20;1.55;;;;;;;16.45;nan;102377.47;5086109;28;20035;-49
2021/10/18 11:48:20;;;;;;;2.13;1.30;;;;;;;16.55;nan;102374.13;5083840;28;20143;-49
2021/10/18 11:50:53;;;;;;;3.20;1.33;;;;;;;16.35;nan;102380.06;5102332;28;20536;-49
2021/10/18 11:53:20;;;;;;;1.77;1.38;;;;;;;16.32;nan;102372.41;5086752;28;20478;-51
2021/10/18 11:55:51;;;;;;;3.03;1.55;;;;;;;16.59;nan;102361.72;5085484;28;20028;-50
2021/10/18 11:58:19;;;;;;;1.25;1.10;;;;;;;16.50;nan;102368.63;5093662;28;20030;-49
2021/10/18 12:00:45;;;;;;;3.58;1.38;;;;;;;16.42;nan;102372.56;5073722;28;20020;-49
2021/10/18 12:03:18;;;;;;;3.50;1.50;;;;;;;16.19;nan;102364.66;5087535;28;20030;-51
2021/10/18 12:05:45;;;;;;;3.28;1.52;;;;;;;16.18;nan;102358.41;5096895;28;20027;-49
2021/10/18 12:08:16;;;;;;;2.55;1.50;;;;;;;15.88;nan;102360.59;5099670;28;20024;-49
2021/10/18 12:10:44;;;;;;;5.90;1.60;;;;;;;16.04;nan;102353.56;5094582;28;20027;-53
2021/10/18 12:13:13;;;;;;;2.35;1.55;;;;;;;16.41;nan;102362.81;5088724;28;20062;-50
2021/10/18 12:15:52;;;;;;;2.35;1.20;;;;;;;16.31;nan;102365.34;5090309;28;20028;-50
2021/10/18 12:18:21;;;;;;;2.83;1.40;;;;;;;16.24;nan;102360.13;5089841;28;20121;-50
2021/10/18 12:20:50;;;;;;;2.50;1.65;;;;;;;16.30;nan;102363.72;5087623;28;20504;-49
2021/10/18 12:23:22;;;;;;;6.60;1.35;;;;;;;16.32;nan;102356.19;5087944;28;20311;-49
2021/10/18 12:26:17;;;;;;;1.42;1.08;;;;;;;16.46;nan;102357.47;5086374;28;20078;-50
2021/10/18 12:28:57;;;;;;;4.25;1.40;;;;;;;15.99;nan;102359.72;5094596;28;20031;-52
2021/10/18 12:31:31;;;;;;;3.55;1.40;;;;;;;16.04;nan;102349.00;5085933;28;20044;-50
2021/10/18 12:34:18;;;;;;;1.85;1.20;;;;;;;16.07;nan;102353.91;5089019;28;20024;-50
2021/10/18 12:36:57;;;;;;;4.15;1.33;;;;;;;15.93;nan;102352.56;5084099;28;20063;-51
2021/10/18 12:39:42;;;;;;;1.45;1.17;;;;;;;15.88;nan;102350.63;5085907;28;20192;-52
2021/10/18 12:42:14;;;;;;;1.60;1.13;;;;;;;16.21;nan;102354.41;5086530;28;20028;-50
2021/10/18 12:44:43;;;;;;;2.47;1.33;;;;;;;16.54;nan;102343.53;5086676;28;20322;-50
2021/10/18 12:47:15;;;;;;;4.60;1.20;;;;;;;16.61;nan;102341.47;5067584;28;20028;-51
2021/10/18 12:49:40;;;;;;;4.43;1.40;;;;;;;16.87;nan;102342.63;5064172;28;20503;-50
2021/10/18 12:52:07;;;;;;;1.48;0.93;;;;;;;16.40;nan;102338.72;5066569;28;20020;-50
2021/10/18 12:54:46;;;;;;;4.43;1.45;;;;;;;16.73;nan;102335.16;5065529;28;20174;-49
2021/10/18 12:57:14;;;;;;;1.35;0.95;;;;;;;16.77;nan;102341.72;5065166;28;20055;-49
2021/10/18 12:59:59;;;;;;;1.83;1.10;;;;;;;16.84;nan;102342.34;5066295;28;20085;-53
2021/10/18 13:02:26;;;;;;;2.88;1.17;;;;;;;16.88;nan;102329.94;5066759;28;20028;-49